Time;durP1;ratioP1;P1;durP2;ratioP2;P2;SDS_P1;SDS_P2;PMS_P1;PMS_P2;Temp;Humidity;BMP_temperature;BMP_pressure;BME280_temperature;BME280_humidity;BME280_pressure;Samples;Min_cycle;Max_cycle;Signal;HPM_P1;HPM_P2
2021/04/19 00:02:18;;;;;;;;;;;;;;;8.94;85.73;99630.16;5136940;27;19930;-74
2021/04/19 00:04:46;;;;;;;;;;;;;;;8.92;85.59;99627.63;5137512;27;19949;-74
2021/04/19 00:07:14;;;;;;;;;;;;;;;8.91;85.27;99625.91;5136870;27;20360;-74
2021/04/19 00:09:43;;;;;;;;;;;;;;;8.91;85.30;99617.41;5136809;27;19963;-74
2021/04/19 00:12:10;;;;;;;;;;;;;;;8.91;85.80;99615.72;5136779;27;20403;-74
2021/04/19 00:14:38;;;;;;;;;;;;;;;8.91;85.28;99618.28;5136733;27;19930;-74
2021/04/19 00:17:06;;;;;;;;;;;;;;;8.91;85.48;99614.88;5136568;27;20269;-74
2021/04/19 00:19:35;;;;;;;;;;;;;;;8.91;85.95;99605.53;5118485;27;19927;-74
2021/04/19 00:22:02;;;;;;;;;;;;;;;8.91;85.77;99605.53;5136578;27;20430;-74
2021/04/19 00:24:30;;;;;;;;;;;;;;;8.90;85.80;99598.75;5136851;27;20429;-74
2021/04/19 00:26:58;;;;;;;;;;;;;;;8.90;85.97;99603.00;5117743;27;20322;-74
2021/04/19 00:29:26;;;;;;;;;;;;;;;8.89;86.03;99606.38;5136336;27;20018;-74
2021/04/19 00:31:54;;;;;;;;;;;;;;;8.88;85.94;99599.63;5136369;27;19923;-74
2021/04/19 00:34:22;;;;;;;;;;;;;;;8.87;85.26;99598.75;5136679;27;19923;-74
2021/04/19 00:36:51;;;;;;;;;;;;;;;8.85;85.61;99595.34;5136495;27;19927;-74
2021/04/19 00:39:18;;;;;;;;;;;;;;;8.86;85.86;99597.03;5136138;27;19924;-74
2021/04/19 00:41:49;;;;;;;;;;;;;;;8.85;86.06;99597.03;5118203;27;19931;-74
2021/04/19 00:44:18;;;;;;;;;;;;;;;8.84;85.14;99593.66;5118084;27;20026;-74
2021/04/19 00:46:47;;;;;;;;;;;;;;;8.83;85.96;99594.47;5136362;27;19927;-74
2021/04/19 00:49:16;;;;;;;;;;;;;;;8.82;85.39;99599.56;5136639;27;19931;-74
2021/04/19 00:51:43;;;;;;;;;;;;;;;8.81;85.16;99598.72;5136154;27;19923;-74
2021/04/19 00:54:13;;;;;;;;;;;;;;;8.80;85.45;99591.94;5135945;27;20364;-74
2021/04/19 00:56:40;;;;;;;;;;;;;;;8.80;85.90;99596.16;5135584;27;19923;-74
2021/04/19 00:59:08;;;;;;;;;;;;;;;8.76;85.30;99591.06;5135739;27;19923;-74
2021/04/19 01:01:36;;;;;;;;;;;;;;;8.75;85.67;99588.50;5135690;27;19923;-75
2021/04/19 01:04:04;;;;;;;;;;;;;;;8.73;85.73;99590.22;5152046;27;19970;-74
2021/04/19 01:06:32;;;;;;;;;;;;;;;8.69;85.63;99588.47;5135186;27;19973;-74
2021/04/19 01:09:00;;;;;;;;;;;;;;;8.66;85.14;99598.66;5135654;27;20396;-74
2021/04/19 01:11:30;;;;;;;;;;;;;;;8.63;85.24;99593.53;5117519;27;19927;-74
2021/04/19 01:14:00;;;;;;;;;;;;;;;8.65;85.26;99591.84;5135623;27;20007;-74
2021/04/19 01:16:30;;;;;;;;;;;;;;;8.66;85.78;99593.56;5151915;27;20391;-74
2021/04/19 01:18:58;;;;;;;;;;;;;;;8.63;85.06;99588.44;5117136;27;20292;-74
2021/04/19 01:21:29;;;;;;;;;;;;;;;8.60;84.82;99594.38;5135598;27;19923;-74
2021/04/19 01:23:56;;;;;;;;;;;;;;;8.58;85.17;99585.88;5117269;27;19961;-74
2021/04/19 01:26:25;;;;;;;;;;;;;;;8.55;84.56;99580.78;5117083;27;19930;-74
2021/04/19 01:28:57;;;;;;;;;;;;;;;8.51;84.54;99583.28;5135387;27;19972;-74
2021/04/19 01:31:25;;;;;;;;;;;;;;;8.49;85.49;99585.84;5135472;27;20016;-74
2021/04/19 01:33:58;;;;;;;;;;;;;;;8.45;85.00;99573.06;5117042;27;20022;-74
2021/04/19 01:36:30;;;;;;;;;;;;;;;8.43;85.49;99580.69;5116948;27;20291;-74
2021/04/19 01:38:57;;;;;;;;;;;;;;;8.39;84.60;99578.13;5116927;27;19924;-75
2021/04/19 01:41:26;;;;;;;;;;;;;;;8.38;84.90;99578.97;5135409;27;19931;-74
2021/04/19 01:43:54;;;;;;;;;;;;;;;8.34;84.82;99584.88;5135034;27;19924;-74
2021/04/19 01:46:22;;;;;;;;;;;;;;;8.32;84.82;99578.94;5135084;27;20284;-75
2021/04/19 01:48:52;;;;;;;;;;;;;;;8.31;84.56;99582.31;5135110;27;19977;-75
2021/04/19 01:51:20;;;;;;;;;;;;;;;8.29;84.62;99578.91;5134914;27;19959;-74
2021/04/19 01:53:50;;;;;;;;;;;;;;;8.29;84.11;99582.31;5135361;27;19924;-74
2021/04/19 01:56:18;;;;;;;;;;;;;;;8.28;85.08;99574.69;5134997;27;20352;-74
2021/04/19 01:58:47;;;;;;;;;;;;;;;8.28;84.65;99584.84;5116918;28;19923;-74
2021/04/19 02:01:14;;;;;;;;;;;;;;;8.28;84.49;99578.06;5134921;28;19973;-74
2021/04/19 02:03:57;;;;;;;;;;;;;;;8.29;84.60;99579.75;5134859;28;19924;-74
2021/04/19 02:06:34;;;;;;;;;;;;;;;8.31;84.50;99582.31;5116683;28;20022;-74
2021/04/19 02:09:05;;;;;;;;;;;;;;;8.29;84.53;99574.69;5135173;28;20108;-74
2021/04/19 02:11:38;;;;;;;;;;;;;;;8.28;84.59;99574.69;5134925;28;19929;-74
2021/04/19 02:14:11;;;;;;;;;;;;;;;8.27;84.63;99572.97;5135031;28;20042;-74
2021/04/19 02:16:46;;;;;;;;;;;;;;;8.28;84.21;99579.75;5116620;28;20027;-74
2021/04/19 02:19:18;;;;;;;;;;;;;;;8.28;83.90;99570.41;5137141;27;19924;-74
2021/04/19 02:21:50;;;;;;;;;;;;;;;8.28;84.30;99577.22;5155610;27;19924;-74
2021/04/19 02:24:22;;;;;;;;;;;;;;;8.26;84.25;99576.31;5139204;27;19923;-73
2021/04/19 02:26:53;;;;;;;;;;;;;;;8.32;84.35;99584.03;5155397;27;19930;-73
2021/04/19 02:29:26;;;;;;;;;;;;;;;8.30;84.15;99575.53;5155005;27;19924;-73
2021/04/19 02:31:57;;;;;;;;;;;;;;;8.30;84.60;99573.81;5120700;27;20015;-73
2021/04/19 02:34:32;;;;;;;;;;;;;;;8.30;84.12;99571.28;5155021;27;19929;-73
2021/04/19 02:37:01;;;;;;;;;;;;;;;8.31;84.42;99575.53;5138687;27;19923;-73
2021/04/19 02:39:35;;;;;;;;;;;;;;;8.31;84.21;99570.44;5138569;27;19946;-73
2021/04/19 02:42:03;;;;;;;;;;;;;;;8.31;85.00;99569.59;5138606;27;19924;-73
2021/04/19 02:44:33;;;;;;;;;;;;;;;8.29;84.03;99571.28;5120113;27;19963;-73
2021/04/19 02:47:12;;;;;;;;;;;;;;;8.31;84.29;99564.50;5120261;27;19930;-73
2021/04/19 02:49:50;;;;;;;;;;;;;;;8.32;83.86;99566.22;5138453;27;19931;-73
2021/04/19 02:52:19;;;;;;;;;;;;;;;8.32;83.63;99561.13;5138329;27;20338;-74
2021/04/19 02:54:48;;;;;;;;;;;;;;;8.32;84.07;99561.13;5138243;27;19976;-73
2021/04/19 02:57:20;;;;;;;;;;;;;;;8.30;84.24;99568.72;5138016;27;19930;-74
2021/04/19 02:59:50;;;;;;;;;;;;;;;8.30;84.81;99558.56;5138566;27;19992;-73
2021/04/19 03:02:19;;;;;;;;;;;;;;;8.27;84.20;99558.56;5138689;27;19946;-73
2021/04/19 03:04:48;;;;;;;;;;;;;;;8.26;84.65;99555.97;5138322;27;19924;-73
2021/04/19 03:07:17;;;;;;;;;;;;;;;8.24;83.80;99557.66;5138045;27;19927;-73
2021/04/19 03:09:52;;;;;;;;;;;;;;;8.24;83.71;99552.56;5119707;27;19930;-73
2021/04/19 03:12:22;;;;;;;;;;;;;;;8.24;84.11;99558.50;5119717;27;20023;-74
2021/04/19 03:14:54;;;;;;;;;;;;;;;8.25;84.42;99556.81;5119642;27;19924;-73
2021/04/19 03:17:24;;;;;;;;;;;;;;;8.25;84.70;99559.38;5128881;27;19968;-74
2021/04/19 03:20:15;;;;;;;;;;;;;;;8.26;84.71;99561.03;5138043;27;19927;-74
2021/04/19 03:22:54;;;;;;;;;;;;;;;8.22;84.19;99555.09;5137844;27;19988;-73
2021/04/19 03:25:29;;;;;;;;;;;;;;;8.20;84.73;99553.41;5136834;27;20336;-74
2021/04/19 03:27:59;;;;;;;;;;;;;;;8.20;84.38;99550.84;5136539;27;19924;-74
2021/04/19 03:30:29;;;;;;;;;;;;;;;8.21;84.16;99557.63;5136282;27;20006;-74
2021/04/19 03:33:05;;;;;;;;;;;;;;;8.19;84.46;99555.09;5120540;27;19923;-73
2021/04/19 03:35:35;;;;;;;;;;;;;;;8.13;84.28;99555.88;5137774;27;19923;-73
2021/04/19 03:38:10;;;;;;;;;;;;;;;8.17;84.58;99555.91;5136293;27;19970;-73
2021/04/19 03:40:41;;;;;;;;;;;;;;;8.19;84.31;99554.22;5137405;27;19927;-74
2021/04/19 03:43:20;;;;;;;;;;;;;;;8.21;84.76;99560.16;5137756;27;19923;-74
2021/04/19 03:46:03;;;;;;;;;;;;;;;8.22;84.63;99554.25;5137552;27;20018;-74
2021/04/19 03:48:32;;;;;;;;;;;;;;;8.22;84.75;99555.09;5137343;27;19931;-74
2021/04/19 03:51:09;;;;;;;;;;;;;;;8.24;84.06;99557.66;5136098;27;19923;-74
2021/04/19 03:53:49;;;;;;;;;;;;;;;8.24;84.23;99557.66;5136046;27;20433;-74
2021/04/19 03:56:20;;;;;;;;;;;;;;;8.24;83.95;99552.56;5135698;27;19937;-74
2021/04/19 03:59:00;;;;;;;;;;;;;;;8.21;84.67;99553.41;5135894;27;19923;-74
2021/04/19 04:01:36;;;;;;;;;;;;;;;8.21;84.31;99557.63;5135965;27;20364;-74
2021/04/19 04:04:05;;;;;;;;;;;;;;;8.20;84.50;99554.25;5136124;27;19931;-74
2021/04/19 04:06:47;;;;;;;;;;;;;;;8.21;84.61;99563.56;5135846;27;19923;-74
2021/04/19 04:09:19;;;;;;;;;;;;;;;8.24;84.78;99557.66;5136933;27;19924;-74
2021/04/19 04:11:48;;;;;;;;;;;;;;;8.22;83.94;99555.09;5135661;27;19928;-74
2021/04/19 04:14:30;;;;;;;;;;;;;;;8.20;84.33;99556.81;5135945;27;19927;-74
2021/04/19 04:16:59;;;;;;;;;;;;;;;8.22;84.44;99554.25;5136758;27;19962;-74
2021/04/19 04:19:44;;;;;;;;;;;;;;;8.20;84.17;99556.81;5136967;27;19924;-74
2021/04/19 04:22:13;;;;;;;;;;;;;;;8.21;84.52;99552.53;5135447;27;19929;-74
2021/04/19 04:24:43;;;;;;;;;;;;;;;8.20;84.63;99555.94;5136651;27;20392;-74
2021/04/19 04:27:13;;;;;;;;;;;;;;;8.19;84.07;99555.09;5136859;27;19973;-74
2021/04/19 04:29:43;;;;;;;;;;;;;;;8.21;84.37;99557.63;5136671;27;19976;-74
2021/04/19 04:32:34;;;;;;;;;;;;;;;8.21;84.27;99560.16;5126413;27;19923;-78
2021/04/19 04:35:16;;;;;;;;;;;;;;;8.24;84.29;99557.66;5136431;27;20277;-73
2021/04/19 04:37:49;;;;;;;;;;;;;;;8.22;83.89;99556.78;5135145;27;19923;-73
2021/04/19 04:40:24;;;;;;;;;;;;;;;8.21;84.12;99558.47;5134723;27;19924;-74
2021/04/19 04:42:55;;;;;;;;;;;;;;;8.17;84.17;99559.31;5135716;27;19954;-73
2021/04/19 04:45:23;;;;;;;;;;;;;;;8.17;84.23;99561.00;5136203;27;19924;-73
2021/04/19 04:47:55;;;;;;;;;;;;;;;8.15;83.57;99557.59;5136468;27;19923;-73
2021/04/19 04:50:25;;;;;;;;;;;;;;;8.16;83.80;99560.13;5136388;27;19931;-73
2021/04/19 04:52:56;;;;;;;;;;;;;;;8.19;83.29;99564.41;5135975;27;19927;-72
2021/04/19 04:55:24;;;;;;;;;;;;;;;8.21;83.46;99562.72;5136032;27;19928;-73
2021/04/19 04:57:54;;;;;;;;;;;;;;;8.22;82.98;99557.66;5135896;27;19951;-75
2021/04/19 05:00:23;;;;;;;;;;;;;;;8.24;83.85;99565.28;5134698;27;19939;-72
2021/04/19 05:02:51;;;;;;;;;;;;;;;8.25;83.74;99561.91;5135851;27;20016;-73
2021/04/19 05:05:19;;;;;;;;;;;;;;;8.26;83.36;99555.97;5135758;27;19923;-73
2021/04/19 05:07:47;;;;;;;;;;;;;;;8.30;83.59;99557.75;5135668;27;20385;-73
2021/04/19 05:10:15;;;;;;;;;;;;;;;8.34;83.80;99564.53;5136131;27;19939;-73
2021/04/19 05:12:47;;;;;;;;;;;;;;;8.36;82.74;99562.84;5136878;27;19927;-72
2021/04/19 05:15:16;;;;;;;;;;;;;;;8.39;83.47;99562.88;5135915;27;19927;-73
2021/04/19 05:17:44;;;;;;;;;;;;;;;8.42;83.16;99558.63;5135586;27;19923;-73
2021/04/19 05:20:13;;;;;;;;;;;;;;;8.45;83.49;99557.81;5135461;27;19972;-74
2021/04/19 05:22:42;;;;;;;;;;;;;;;8.45;83.41;99560.34;5135434;27;20043;-73
2021/04/19 05:25:11;;;;;;;;;;;;;;;8.45;83.28;99557.81;5135403;27;20027;-73
2021/04/19 05:27:39;;;;;;;;;;;;;;;8.44;82.84;99556.13;5136033;27;20337;-73
2021/04/19 05:30:07;;;;;;;;;;;;;;;8.46;83.16;99555.28;5135301;27;19931;-73
2021/04/19 05:32:36;;;;;;;;;;;;;;;8.48;83.03;99560.38;5135335;27;19923;-73
2021/04/19 05:35:04;;;;;;;;;;;;;;;8.47;83.05;99556.16;5135296;27;19930;-73
2021/04/19 05:37:33;;;;;;;;;;;;;;;8.47;83.09;99562.06;5135159;27;19976;-73
2021/04/19 05:40:01;;;;;;;;;;;;;;;8.46;82.87;99559.53;5135437;27;20245;-73
2021/04/19 05:42:29;;;;;;;;;;;;;;;8.45;83.00;99562.91;5135205;27;20284;-73
2021/04/19 05:44:57;;;;;;;;;;;;;;;8.46;83.59;99559.53;5135486;27;19946;-73
2021/04/19 05:47:25;;;;;;;;;;;;;;;8.48;83.26;99568.00;5133743;27;19951;-73
2021/04/19 05:49:54;;;;;;;;;;;;;;;8.46;83.12;99564.59;5135217;27;20449;-73
2021/04/19 05:52:21;;;;;;;;;;;;;;;8.49;83.64;99564.63;5133756;27;19924;-73
2021/04/19 05:54:49;;;;;;;;;;;;;;;8.52;82.77;99570.56;5135240;27;20001;-74
2021/04/19 05:57:20;;;;;;;;;;;;;;;8.57;83.64;99562.97;5133459;27;19927;-73
2021/04/19 05:59:49;;;;;;;;;;;;;;;8.60;83.41;99568.06;5134923;27;20300;-73
2021/04/19 06:02:21;;;;;;;;;;;;;;;8.60;83.48;99568.06;5111372;27;19924;-73
2021/04/19 06:04:52;;;;;;;;;;;;;;;8.58;83.50;99563.00;5094064;28;19973;-73
2021/04/19 06:07:26;;;;;;;;;;;;;;;8.59;83.67;99561.31;5070987;28;19923;-73
2021/04/19 06:10:08;;;;;;;;;;;;;;;8.62;83.46;99571.47;5092895;28;20389;-72
2021/04/19 06:12:49;;;;;;;;;;;;;;;8.64;83.15;99564.69;5093786;28;19932;-73
2021/04/19 06:15:22;;;;;;;;;;;;;;;8.65;83.33;99567.25;5092774;28;19951;-74
2021/04/19 06:17:51;;;;;;;;;;;;;;;8.65;83.63;99568.94;5093853;28;19928;-74
2021/04/19 06:20:20;;;;;;;;;;;;;;;8.65;83.16;99566.41;5094013;28;19924;-74
2021/04/19 06:22:50;;;;;;;;;;;;;;;8.61;83.28;99568.06;5093874;28;19930;-74
2021/04/19 06:25:18;;;;;;;;;;;;;;;8.60;83.54;99568.06;5093832;28;19938;-73
2021/04/19 06:27:46;;;;;;;;;;;;;;;8.62;82.95;99566.38;5093808;28;19936;-73
2021/04/19 06:30:19;;;;;;;;;;;;;;;8.66;83.60;99573.22;5093770;28;20405;-73
2021/04/19 06:32:48;;;;;;;;;;;;;;;8.67;83.45;99572.34;5093712;28;19935;-73
2021/04/19 06:35:17;;;;;;;;;;;;;;;8.68;83.12;99576.59;5093750;28;20358;-73
2021/04/19 06:37:49;;;;;;;;;;;;;;;8.68;83.00;99574.06;5093474;28;20408;-73
2021/04/19 06:40:18;;;;;;;;;;;;;;;8.69;83.50;99568.13;5109463;28;20026;-72
2021/04/19 06:42:45;;;;;;;;;;;;;;;8.66;83.56;99578.31;5093354;28;19969;-73
2021/04/19 06:45:15;;;;;;;;;;;;;;;8.64;82.94;99569.78;5093626;28;20023;-73
2021/04/19 06:47:44;;;;;;;;;;;;;;;8.67;82.69;99570.66;5093695;28;20343;-73
2021/04/19 06:50:12;;;;;;;;;;;;;;;8.67;83.15;99574.88;5093474;28;19930;-73
2021/04/19 06:52:46;;;;;;;;;;;;;;;8.68;83.20;99574.06;5094138;28;19928;-73
2021/04/19 06:55:16;;;;;;;;;;;;;;;8.71;82.81;99568.97;5093926;28;19963;-73
2021/04/19 06:57:46;;;;;;;;;;;;;;;8.75;83.28;99568.16;5106565;28;19923;-73
2021/04/19 07:00:14;;;;;;;;;;;;;;;8.83;82.73;99560.56;5113730;28;20014;-73
2021/04/19 07:02:49;;;;;;;;;;;;;;;8.84;82.44;99565.66;5079284;28;19977;-72
2021/04/19 07:05:18;;;;;;;;;;;;;;;8.87;82.68;99567.34;5116390;28;19928;-73
2021/04/19 07:07:49;;;;;;;;;;;;;;;8.90;82.37;99568.19;5117737;28;19924;-73
2021/04/19 07:10:18;;;;;;;;;;;;;;;8.95;82.25;99570.78;5117778;28;20034;-73
2021/04/19 07:12:47;;;;;;;;;;;;;;;8.96;81.83;99565.69;5117393;28;19928;-73
2021/04/19 07:15:18;;;;;;;;;;;;;;;8.97;82.40;99569.97;5117702;28;19985;-73
2021/04/19 07:17:48;;;;;;;;;;;;;;;9.05;81.72;99564.88;5117423;28;20386;-73
2021/04/19 07:20:17;;;;;;;;;;;;;;;9.10;82.34;99561.50;5116998;28;19928;-73
2021/04/19 07:22:45;;;;;;;;;;;;;;;9.15;82.08;99570.00;5117193;28;19930;-73
2021/04/19 07:25:13;;;;;;;;;;;;;;;9.17;81.73;99563.22;5117118;28;19924;-73
2021/04/19 07:27:42;;;;;;;;;;;;;;;9.20;81.80;99565.78;5117046;28;19977;-73
2021/04/19 07:30:11;;;;;;;;;;;;;;;9.24;81.87;99564.06;5117036;28;19923;-72
2021/04/19 07:32:40;;;;;;;;;;;;;;;9.25;81.91;99566.66;5117124;28;19931;-73
2021/04/19 07:35:09;;;;;;;;;;;;;;;9.27;80.62;99564.94;5117064;28;20284;-73
2021/04/19 07:37:36;;;;;;;;;;;;;;;9.27;80.80;99562.41;5117063;28;20377;-72
2021/04/19 07:40:06;;;;;;;;;;;;;;;9.32;80.54;99558.19;5117420;28;20026;-73
2021/04/19 07:42:37;;;;;;;;;;;;;;;9.35;80.10;99557.34;5116803;28;20389;-73
2021/04/19 07:45:07;;;;;;;;;;;;;;;9.39;80.26;99553.94;5116810;28;20381;-73
2021/04/19 07:47:37;;;;;;;;;;;;;;;9.41;79.62;99553.09;5116773;28;19924;-73
2021/04/19 07:50:09;;;;;;;;;;;;;;;9.50;80.37;99551.41;5116684;28;20014;-73
2021/04/19 07:52:38;;;;;;;;;;;;;;;9.56;80.08;99551.41;5116669;28;19931;-73
2021/04/19 07:55:07;;;;;;;;;;;;;;;9.59;79.28;99546.31;5116557;28;19924;-73
2021/04/19 07:57:53;;;;;;;;;;;;;;;9.66;78.77;99548.03;5116336;28;20010;-73
2021/04/19 08:00:31;;;;;;;;;;;;;;;9.71;78.59;99554.84;5116321;28;19931;-73
2021/04/19 08:03:00;;;;;;;;;;;;;;;9.79;78.08;99547.19;5116462;28;20294;-73
2021/04/19 08:05:31;;;;;;;;;;;;;;;9.88;77.99;99550.59;5116382;28;19981;-74
2021/04/19 08:07:59;;;;;;;;;;;;;;;9.92;77.61;99547.19;5116545;28;20026;-71
2021/04/19 08:10:27;;;;;;;;;;;;;;;9.96;77.45;99548.88;5116270;28;20031;-73
2021/04/19 08:13:05;;;;;;;;;;;;;;;9.97;77.34;99554.84;5115259;28;20331;-73
2021/04/19 08:15:35;;;;;;;;;;;;;;;9.92;76.71;99546.34;5116262;28;20357;-73
2021/04/19 08:18:04;;;;;;;;;;;;;;;9.99;77.15;99545.47;5116113;28;20284;-73
2021/04/19 08:20:32;;;;;;;;;;;;;;;10.13;76.38;99536.16;5116074;28;19931;-72
2021/04/19 08:23:04;;;;;;;;;;;;;;;10.15;76.42;99544.63;5116539;28;19982;-73
2021/04/19 08:25:35;;;;;;;;;;;;;;;10.26;75.99;99540.38;5097962;28;19992;-73
2021/04/19 08:28:04;;;;;;;;;;;;;;;10.38;75.60;99542.91;5115976;28;19931;-73
2021/04/19 08:30:33;;;;;;;;;;;;;;;10.49;74.98;99543.72;5115842;28;19928;-73
2021/04/19 08:33:01;;;;;;;;;;;;;;;10.64;74.56;99538.59;5115992;28;19931;-73
2021/04/19 08:35:30;;;;;;;;;;;;;;;10.78;74.63;99533.41;5115805;28;19930;-73
2021/04/19 08:37:59;;;;;;;;;;;;;;;10.95;73.75;99535.91;5115986;28;19970;-72
2021/04/19 08:40:27;;;;;;;;;;;;;;;11.06;74.23;99534.16;5115617;28;19973;-73
2021/04/19 08:42:55;;;;;;;;;;;;;;;11.21;73.69;99528.94;5115494;28;19927;-73
2021/04/19 08:45:23;;;;;;;;;;;;;;;11.40;73.04;99530.53;5115574;28;19979;-72
2021/04/19 08:47:52;;;;;;;;;;;;;;;11.47;72.41;99527.06;5115491;28;20400;-73
2021/04/19 08:50:24;;;;;;;;;;;;;;;11.56;72.28;99532.16;5115441;28;19924;-73
2021/04/19 08:52:53;;;;;;;;;;;;;;;11.50;71.57;99532.16;5115551;28;20442;-73
2021/04/19 08:55:22;;;;;;;;;;;;;;;11.60;71.43;99526.13;5115646;28;19950;-73
2021/04/19 08:57:50;;;;;;;;;;;;;;;11.66;70.74;99531.19;5114961;28;20319;-73
2021/04/19 09:00:19;;;;;;;;;;;;;;;11.61;70.17;99525.28;5115200;28;19934;-72
2021/04/19 09:02:47;;;;;;;;;;;;;;;11.60;70.09;99528.69;5115284;28;20162;-73
2021/04/19 09:05:16;;;;;;;;;;;;;;;11.70;70.46;99522.69;5115380;28;20334;-72
2021/04/19 09:07:46;;;;;;;;;;;;;;;11.76;69.78;99527.75;5115133;28;19930;-73
2021/04/19 09:10:16;;;;;;;;;;;;;;;11.82;69.83;99525.16;5115357;28;19924;-73
2021/04/19 09:12:46;;;;;;;;;;;;;;;11.86;69.37;99531.94;5115141;28;19924;-72
2021/04/19 09:15:29;;;;;;;;;;;;;;;11.79;69.04;99529.44;5115033;28;20434;-72
2021/04/19 09:18:05;;;;;;;;;;;;;;;11.72;68.68;99528.63;5113399;28;19927;-72
2021/04/19 09:20:44;;;;;;;;;;;;;;;11.65;68.31;99529.50;5114972;28;19928;-72
2021/04/19 09:23:23;;;;;;;;;;;;;;;11.69;68.53;99520.97;5114974;28;19924;-73
2021/04/19 09:25:52;;;;;;;;;;;;;;;11.69;68.28;99525.25;5115219;28;19923;-72
2021/04/19 09:28:31;;;;;;;;;;;;;;;11.66;68.16;99520.97;5114412;28;19961;-72
2021/04/19 09:30:59;;;;;;;;;;;;;;;11.67;68.07;99519.25;5113589;28;19924;-72
2021/04/19 09:33:26;;;;;;;;;;;;;;;11.58;68.19;99514.22;5114647;28;19930;-72
2021/04/19 09:35:54;;;;;;;;;;;;;;;11.59;68.31;99513.38;5114956;28;19924;-72
2021/04/19 09:38:33;;;;;;;;;;;;;;;11.70;68.60;99517.59;5114605;28;19968;-72
2021/04/19 09:41:03;;;;;;;;;;;;;;;11.80;68.47;99516.66;5114660;28;20350;-73
2021/04/19 09:43:31;;;;;;;;;;;;;;;11.88;68.21;99514.84;5114813;28;19930;-73
2021/04/19 09:46:00;;;;;;;;;;;;;;;11.99;67.78;99513.06;5114486;28;19924;-73
2021/04/19 09:48:48;;;;;;;;;;;;;;;11.99;67.56;99507.97;5114470;28;19924;-72
2021/04/19 09:51:17;;;;;;;;;;;;;;;11.94;67.16;99509.72;5114500;28;20018;-72
2021/04/19 09:53:46;;;;;;;;;;;;;;;11.87;66.63;99502.09;5114725;28;19927;-72
2021/04/19 09:56:20;;;;;;;;;;;;;;;11.95;66.71;99505.41;5114412;28;19977;-72
2021/04/19 09:58:48;;;;;;;;;;;;;;;12.00;66.31;99499.41;5114139;28;19970;-72
2021/04/19 10:01:17;;;;;;;;;;;;;;;12.06;65.92;99499.38;5079432;28;19924;-71
2021/04/19 10:03:48;;;;;;;;;;;;;;;12.11;65.92;99501.88;5114674;28;20037;-72
2021/04/19 10:06:19;;;;;;;;;;;;;;;12.21;65.89;99502.63;5114985;28;19923;-72
2021/04/19 10:08:48;;;;;;;;;;;;;;;12.25;65.59;99504.28;5114318;28;19924;-72
2021/04/19 10:11:17;;;;;;;;;;;;;;;12.22;65.20;99499.19;5114321;28;20384;-72
2021/04/19 10:13:44;;;;;;;;;;;;;;;12.29;65.06;99500.81;5114255;28;19928;-72
2021/04/19 10:16:14;;;;;;;;;;;;;;;12.34;64.94;99494.78;5096298;28;20373;-72
2021/04/19 10:18:43;;;;;;;;;;;;;;;12.51;65.24;99492.03;5114027;28;20346;-73
2021/04/19 10:21:23;;;;;;;;;;;;;;;12.66;65.82;99491.88;5114151;28;19927;-73
2021/04/19 10:23:50;;;;;;;;;;;;;;;12.69;65.25;99492.66;5113458;28;19965;-73
2021/04/19 10:26:29;;;;;;;;;;;;;;;12.64;64.53;99488.47;5114164;28;20381;-72
2021/04/19 10:28:57;;;;;;;;;;;;;;;12.59;63.76;99496.22;5079311;28;20273;-72
2021/04/19 10:31:24;;;;;;;;;;;;;;;12.65;63.33;99485.91;5114404;28;20383;-72
2021/04/19 10:33:52;;;;;;;;;;;;;;;12.84;63.26;99483.94;5114053;28;19924;-72
2021/04/19 10:36:21;;;;;;;;;;;;;;;13.02;62.83;99481.16;5114112;28;19973;-71
2021/04/19 10:38:49;;;;;;;;;;;;;;;13.18;62.71;99487.78;5114458;28;19924;-71
2021/04/19 10:41:17;;;;;;;;;;;;;;;13.31;62.88;99483.31;5118061;28;19927;-71
2021/04/19 10:43:53;;;;;;;;;;;;;;;13.41;62.36;99483.16;5118302;28;19930;-72
2021/04/19 10:46:21;;;;;;;;;;;;;;;13.58;61.87;99469.25;5119553;28;19928;-74
2021/04/19 10:48:49;;;;;;;;;;;;;;;13.75;60.92;99474.94;5118156;28;19977;-71
2021/04/19 10:51:19;;;;;;;;;;;;;;;13.90;60.09;99469.53;5099914;28;19934;-72
2021/04/19 10:53:47;;;;;;;;;;;;;;;13.95;59.21;99472.84;5118165;28;19930;-72
2021/04/19 10:56:21;;;;;;;;;;;;;;;13.99;58.23;99474.47;5117726;28;19923;-72
2021/04/19 10:58:51;;;;;;;;;;;;;;;14.16;58.21;99462.19;5117593;28;19969;-72
2021/04/19 11:01:24;;;;;;;;;;;;;;;14.30;57.99;99464.53;5118052;28;19958;-72
2021/04/19 11:03:52;;;;;;;;;;;;;;;14.53;57.94;99465.78;5117918;28;20023;-72
2021/04/19 11:06:20;;;;;;;;;;;;;;;14.57;57.17;99456.28;5117561;28;19923;-72
2021/04/19 11:08:49;;;;;;;;;;;;;;;14.72;56.98;99448.28;5117757;28;19959;-72
2021/04/19 11:11:24;;;;;;;;;;;;;;;14.73;56.38;99450.78;5117453;28;19947;-72
2021/04/19 11:13:53;;;;;;;;;;;;;;;14.83;56.08;99450.63;5099416;28;19973;-72
2021/04/19 11:16:21;;;;;;;;;;;;;;;14.84;55.19;99448.00;5117304;28;19993;-72
2021/04/19 11:18:49;;;;;;;;;;;;;;;14.66;54.68;99449.22;5117193;28;19923;-72
2021/04/19 11:21:28;;;;;;;;;;;;;;;14.66;54.87;99446.66;5117122;28;19975;-72
2021/04/19 11:24:06;;;;;;;;;;;;;;;14.75;54.98;99443.94;5117319;28;20397;-72
2021/04/19 11:26:34;;;;;;;;;;;;;;;14.74;54.73;99444.78;5117403;28;19923;-72
2021/04/19 11:29:03;;;;;;;;;;;;;;;14.88;55.02;99433.34;5117554;28;20430;-72
2021/04/19 11:31:42;;;;;;;;;;;;;;;14.61;54.17;99435.63;5117140;28;19924;-72
2021/04/19 11:34:12;;;;;;;;;;;;;;;14.56;54.29;99436.63;5117059;28;19935;-72
2021/04/19 11:36:59;;;;;;;;;;;;;;;14.62;54.34;99437.34;5116999;28;19923;-72
2021/04/19 11:39:31;;;;;;;;;;;;;;;14.69;54.24;99433.75;5116826;28;19927;-72
2021/04/19 11:41:59;;;;;;;;;;;;;;;14.82;54.28;99433.50;5117201;28;19928;-72
2021/04/19 11:44:44;;;;;;;;;;;;;;;14.81;54.62;99431.81;5116738;28;19962;-72
2021/04/19 11:47:16;;;;;;;;;;;;;;;14.67;55.06;99435.53;5116798;28;20022;-72
2021/04/19 11:49:44;;;;;;;;;;;;;;;14.75;55.48;99431.09;5116614;28;20270;-72
2021/04/19 11:52:12;;;;;;;;;;;;;;;14.95;56.38;99427.22;5116540;28;19923;-72
2021/04/19 11:54:40;;;;;;;;;;;;;;;14.99;55.63;99424.56;5116587;28;19924;-72
2021/04/19 11:57:07;;;;;;;;;;;;;;;15.00;55.92;99428.78;5116347;28;19981;-72
2021/04/19 11:59:40;;;;;;;;;;;;;;;14.97;55.80;99417.75;5098843;28;19928;-72
2021/04/19 12:02:08;;;;;;;;;;;;;;;14.89;56.04;99420.50;5116766;28;19977;-72
2021/04/19 12:04:37;;;;;;;;;;;;;;;14.82;55.76;99418.09;5116484;28;19938;-72
2021/04/19 12:07:05;;;;;;;;;;;;;;;14.72;55.35;99418.28;5116344;28;19930;-72
2021/04/19 12:09:33;;;;;;;;;;;;;;;14.59;55.25;99416.84;5116478;28;19924;-72
2021/04/19 12:12:00;;;;;;;;;;;;;;;14.38;55.07;99413.88;5116233;28;19931;-72
2021/04/19 12:14:28;;;;;;;;;;;;;;;14.26;54.93;99417.50;5116200;28;20381;-72
2021/04/19 12:16:56;;;;;;;;;;;;;;;14.14;55.70;99420.31;5116073;28;19923;-72
2021/04/19 12:19:24;;;;;;;;;;;;;;;14.06;56.43;99422.19;5097905;28;19931;-72
2021/04/19 12:21:53;;;;;;;;;;;;;;;13.91;56.74;99417.34;5116560;28;19930;-71
2021/04/19 12:24:21;;;;;;;;;;;;;;;13.86;57.09;99426.84;5116314;28;19923;-72
2021/04/19 12:26:48;;;;;;;;;;;;;;;13.76;57.23;99428.72;5115984;28;19923;-72
2021/04/19 12:29:16;;;;;;;;;;;;;;;13.60;57.87;99429.03;5115816;28;19970;-72
2021/04/19 12:31:44;;;;;;;;;;;;;;;13.43;57.85;99426.75;5115829;28;19958;-71
2021/04/19 12:34:13;;;;;;;;;;;;;;;13.29;58.16;99432.06;5115922;28;19924;-71
2021/04/19 12:36:41;;;;;;;;;;;;;;;13.20;58.84;99439.91;5115734;28;20381;-73
2021/04/19 12:39:10;;;;;;;;;;;;;;;13.06;60.73;99452.09;5115460;28;19923;-72
2021/04/19 12:41:37;;;;;;;;;;;;;;;12.74;63.54;99449.09;5115634;28;19928;-72
2021/04/19 12:44:06;;;;;;;;;;;;;;;12.24;65.28;99447.13;5097782;28;20015;-73
2021/04/19 12:46:33;;;;;;;;;;;;;;;11.80;67.56;99450.19;5097496;28;19928;-72
2021/04/19 12:49:01;;;;;;;;;;;;;;;11.53;69.01;99450.38;5115929;28;19924;-72
2021/04/19 12:51:29;;;;;;;;;;;;;;;11.41;69.81;99448.78;5115697;28;19959;-72
2021/04/19 12:53:57;;;;;;;;;;;;;;;11.25;70.83;99443.78;5115533;28;19966;-72
2021/04/19 12:56:27;;;;;;;;;;;;;;;11.14;71.10;99448.97;5115436;28;20018;-72
2021/04/19 12:58:55;;;;;;;;;;;;;;;11.10;71.58;99441.34;5115545;28;20011;-72
2021/04/19 13:01:23;;;;;;;;;;;;;;;11.04;72.42;99438.81;5114928;28;20415;-73
2021/04/19 13:03:51;;;;;;;;;;;;;;;11.04;72.71;99443.91;5114865;28;19923;-72
2021/04/19 13:06:19;;;;;;;;;;;;;;;11.05;72.84;99440.50;5115249;28;19924;-73
2021/04/19 13:08:47;;;;;;;;;;;;;;;11.05;73.30;99443.06;5115254;28;19924;-72
2021/04/19 13:11:16;;;;;;;;;;;;;;;10.97;73.24;99447.38;5115764;28;19924;-72